Time;durP1;ratioP1;P1;durP2;ratioP2;P2;SDS_P1;SDS_P2;PMS_P1;PMS_P2;Temp;Humidity;BMP_temperature;BMP_pressure;BME280_temperature;BME280_humidity;BME280_pressure;Samples;Min_cycle;Max_cycle;Signal;HPM_P1;HPM_P2
2022/04/28 00:00:28;;;;;;;7.93;7.30;;;11.00;76.10;;;;;;5077685;28;20435;-46
2022/04/28 00:02:54;;;;;;;8.17;7.47;;;11.00;76.60;;;;;;5078304;28;20408;-46
2022/04/28 00:05:32;;;;;;;8.10;7.40;;;10.90;77.00;;;;;;5077432;28;20775;-46
2022/04/28 00:07:57;;;;;;;8.13;7.43;;;10.90;77.40;;;;;;5078148;28;20408;-45
2022/04/28 00:10:23;;;;;;;8.70;8.00;;;10.90;77.80;;;;;;5077504;28;20514;-46
2022/04/28 00:12:49;;;;;;;9.83;8.93;;;10.80;78.20;;;;;;5077563;28;20185;-45
2022/04/28 00:15:15;;;;;;;8.60;7.83;;;10.80;78.70;;;;;;5077115;28;20428;-45
2022/04/28 00:17:41;;;;;;;9.10;8.30;;;10.80;79.00;;;;;;5075679;28;20205;-45
2022/04/28 00:20:07;;;;;;;9.53;8.70;;;10.70;79.00;;;;;;5075738;28;20189;-47
2022/04/28 00:22:33;;;;;;;8.60;7.77;;;10.70;79.10;;;;;;5058605;28;20460;-46
2022/04/28 00:24:59;;;;;;;8.87;8.07;;;10.70;79.50;;;;;;5075724;28;20424;-45
2022/04/28 00:27:25;;;;;;;9.50;8.50;;;10.60;79.80;;;;;;5075699;28;20527;-46
2022/04/28 00:29:50;;;;;;;8.17;7.40;;;10.60;80.00;;;;;;5075201;28;20411;-45
2022/04/28 00:32:16;;;;;;;8.27;7.57;;;10.60;80.10;;;;;;5074716;28;20189;-46
2022/04/28 00:34:42;;;;;;;9.00;8.20;;;10.60;80.10;;;;;;5075485;28;20185;-46
2022/04/28 00:37:09;;;;;;;9.10;8.30;;;10.50;80.40;;;;;;5075497;28;20193;-45
2022/04/28 00:39:38;;;;;;;10.40;8.67;;;10.50;81.00;;;;;;5075977;28;20208;-46
2022/04/28 00:42:11;;;;;;;9.37;8.53;;;10.50;81.20;;;;;;5075658;28;20469;-46
2022/04/28 00:44:37;;;;;;;10.27;9.27;;;10.50;81.20;;;;;;5075777;28;20505;-46
2022/04/28 00:47:03;;;;;;;8.67;7.63;;;10.40;80.80;;;;;;5076787;28;20470;-46
2022/04/28 00:52:13;;;;;;;8.50;7.70;;;10.30;80.90;;;;;;5077212;28;20523;-45
2022/04/28 00:54:39;;;;;;;8.67;7.70;;;10.20;81.00;;;;;;5077281;28;20440;-46
2022/04/28 00:57:05;;;;;;;11.77;8.10;;;10.20;81.30;;;;;;5077276;28;20190;-46
2022/04/28 00:59:30;;;;;;;8.87;8.00;;;10.10;81.40;;;;;;5077026;28;20186;-46
2022/04/28 01:01:56;;;;;;;8.47;7.57;;;10.10;81.70;;;;;;5077036;28;20267;-46
2022/04/28 01:04:22;;;;;;;8.73;7.97;;;10.00;81.60;;;;;;5059172;28;20203;-46
2022/04/28 01:07:00;;;;;;;9.17;8.23;;;10.00;81.60;;;;;;5076989;28;20420;-46
2022/04/28 01:12:48;;;;;;;11.40;8.67;;;9.80;83.30;;;;;;5075838;28;20434;-46
2022/04/28 01:15:13;;;;;;;9.33;8.50;;;9.80;83.60;;;;;;5076159;28;20451;-46
2022/04/28 01:17:39;;;;;;;9.30;8.40;;;9.80;83.80;;;;;;5076615;28;20224;-46
2022/04/28 01:20:05;;;;;;;9.80;8.80;;;9.80;83.80;;;;;;5075784;28;20185;-43
2022/04/28 01:22:31;;;;;;;9.00;8.20;;;9.70;84.10;;;;;;5076041;28;20267;-46
2022/04/28 01:24:57;;;;;;;8.23;7.53;;;9.70;84.10;;;;;;5075750;28;20415;-45
2022/04/28 01:27:39;;;;;;;9.50;8.50;;;9.60;84.90;;;;;;5058105;28;20262;-46
2022/04/28 01:30:17;;;;;;;8.47;7.67;;;9.60;84.40;;;;;;5076440;28;20182;-46
2022/04/28 01:32:42;;;;;;;8.87;8.07;;;9.50;85.40;;;;;;5075567;28;20542;-46
2022/04/28 01:35:09;;;;;;;8.73;8.00;;;9.40;84.70;;;;;;5076571;28;20510;-46
2022/04/28 01:37:34;;;;;;;8.77;7.90;;;9.40;84.80;;;;;;5058800;28;20221;-46
2022/04/28 01:40:00;;;;;;;8.50;7.70;;;9.40;85.00;;;;;;5076223;28;20408;-46
2022/04/28 01:42:26;;;;;;;8.90;8.20;;;9.30;85.00;;;;;;5075697;28;20190;-46
2022/04/28 01:44:52;;;;;;;9.30;8.40;;;9.30;85.10;;;;;;5076336;28;20277;-46
2022/04/28 01:47:18;;;;;;;8.77;7.97;;;9.20;85.40;;;;;;5076006;28;20186;-46
2022/04/28 01:49:44;;;;;;;9.40;8.50;;;9.20;85.60;;;;;;5076207;28;20448;-45
2022/04/28 01:54:59;;;;;;;8.93;8.03;;;9.10;85.70;;;;;;5080086;28;20908;-46
2022/04/28 01:57:31;;;;;;;9.70;8.60;;;9.10;86.00;;;;;;5079578;28;20476;-46
2022/04/28 01:59:58;;;;;;;8.97;8.17;;;9.00;86.00;;;;;;5080105;28;20810;-46
2022/04/28 02:02:24;;;;;;;8.97;8.17;;;9.00;86.20;;;;;;5079858;28;20428;-46
2022/04/28 02:04:50;;;;;;;8.73;7.93;;;8.90;86.10;;;;;;5062594;28;20407;-46
2022/04/28 02:07:16;;;;;;;9.67;8.77;;;8.90;86.20;;;;;;5078970;28;20496;-46
2022/04/28 02:09:43;;;;;;;8.57;7.67;;;8.80;86.20;;;;;;5079730;28;20756;-46
2022/04/28 02:12:09;;;;;;;8.60;7.80;;;8.80;86.30;;;;;;5079750;28;20217;-46
2022/04/28 02:14:36;;;;;;;8.97;8.10;;;8.80;86.60;;;;;;5080563;28;20794;-46
2022/04/28 02:17:02;;;;;;;8.70;7.90;;;8.80;86.70;;;;;;5061904;28;20927;-46
2022/04/28 02:19:27;;;;;;;8.90;8.03;;;8.70;86.80;;;;;;5079817;28;20438;-46
2022/04/28 02:21:54;;;;;;;9.13;8.33;;;8.70;86.90;;;;;;5079105;28;20424;-46
2022/04/28 02:24:19;;;;;;;8.43;7.63;;;8.60;86.90;;;;;;5061361;28;20182;-46
2022/04/28 02:26:45;;;;;;;8.77;7.90;;;8.60;87.10;;;;;;5078484;28;20506;-46
2022/04/28 02:29:11;;;;;;;9.27;8.47;;;8.60;87.30;;;;;;5079797;28;20209;-46
2022/04/28 02:31:36;;;;;;;9.77;8.90;;;8.50;87.40;;;;;;5079662;28;20217;-46
2022/04/28 02:34:02;;;;;;;8.90;8.03;;;8.50;87.50;;;;;;5079487;28;20182;-46
2022/04/28 02:36:27;;;;;;;9.97;9.03;;;8.50;87.50;;;;;;5078533;28;20270;-46
2022/04/28 02:38:53;;;;;;;9.30;8.40;;;8.50;87.60;;;;;;5061617;28;20252;-46
2022/04/28 02:41:21;;;;;;;9.30;8.50;;;8.40;87.60;;;;;;5078970;28;20272;-46
2022/04/28 02:43:51;;;;;;;9.90;8.90;;;8.40;87.60;;;;;;5078605;28;20213;-45
2022/04/28 02:46:17;;;;;;;8.57;7.77;;;8.40;87.90;;;;;;5079339;28;20404;-46
2022/04/28 02:48:43;;;;;;;9.73;8.73;;;8.40;87.90;;;;;;5061503;28;20908;-46
2022/04/28 02:51:09;;;;;;;8.90;8.10;;;8.30;87.90;;;;;;5078975;28;20515;-46
2022/04/28 02:53:37;;;;;;;9.50;8.50;;;8.20;88.00;;;;;;5078423;28;20485;-46
2022/04/28 02:56:05;;;;;;;9.50;8.50;;;8.20;88.20;;;;;;5077563;28;20869;-46
2022/04/28 02:58:33;;;;;;;9.67;8.80;;;8.20;88.30;;;;;;5077609;28;20572;-46
2022/04/28 03:00:59;;;;;;;9.20;8.33;;;8.10;88.30;;;;;;5060385;28;20227;-46
2022/04/28 03:03:25;;;;;;;9.27;8.37;;;8.10;88.20;;;;;;5076163;28;20838;-46
2022/04/28 03:11:27;;;;;;;9.80;8.90;;;8.10;88.30;;;;;;5077811;28;20414;-46
2022/04/28 03:13:54;;;;;;;9.20;8.30;;;8.00;88.30;;;;;;5077733;28;20431;-45
2022/04/28 03:16:19;;;;;;;9.13;8.23;;;8.00;88.40;;;;;;5078330;28;20853;-46
2022/04/28 03:18:45;;;;;;;9.37;8.43;;;7.90;88.50;;;;;;5078356;28;20478;-46
2022/04/28 03:21:12;;;;;;;9.50;8.67;;;7.90;88.40;;;;;;5078429;28;20459;-46
2022/04/28 03:23:38;;;;;;;10.17;9.13;;;7.90;88.70;;;;;;5078220;28;20469;-46
2022/04/28 03:26:04;;;;;;;9.97;9.07;;;7.90;88.80;;;;;;5078188;28;20424;-45
2022/04/28 03:28:34;;;;;;;9.13;8.23;;;7.90;88.70;;;;;;5078901;28;20264;-46
2022/04/28 03:31:01;;;;;;;10.17;9.20;;;7.80;88.70;;;;;;5078045;28;20228;-45
2022/04/28 03:33:27;;;;;;;9.60;8.60;;;7.80;88.90;;;;;;5060830;28;20435;-46
2022/04/28 03:35:53;;;;;;;9.63;8.73;;;7.70;89.00;;;;;;5078319;28;20463;-45
2022/04/28 03:38:18;;;;;;;12.30;8.00;;;7.70;89.30;;;;;;5060380;28;20209;-46
2022/04/28 03:40:44;;;;;;;9.97;8.97;;;7.70;89.30;;;;;;5077769;28;20532;-45
2022/04/28 03:43:10;;;;;;;11.73;9.30;;;7.70;89.30;;;;;;5077636;28;20578;-46
2022/04/28 03:45:37;;;;;;;10.33;9.07;;;7.70;89.30;;;;;;5077364;28;20190;-46
2022/04/28 03:48:09;;;;;;;9.80;8.97;;;7.60;89.10;;;;;;5060322;28;20435;-46
2022/04/28 03:50:36;;;;;;;8.37;7.67;;;7.60;89.00;;;;;;5077664;28;20758;-46
2022/04/28 03:53:02;;;;;;;8.57;7.77;;;7.60;89.10;;;;;;5077819;28;20526;-45
2022/04/28 03:55:28;;;;;;;8.50;7.70;;;7.60;89.20;;;;;;5059076;28;20431;-45
2022/04/28 03:57:54;;;;;;;8.70;7.90;;;7.50;89.30;;;;;;5077231;28;20467;-46
2022/04/28 04:00:23;;;;;;;9.30;8.50;;;7.50;89.40;;;;;;5076270;28;20204;-45
2022/04/28 04:02:49;;;;;;;9.20;8.40;;;7.40;89.30;;;;;;5077302;28;20189;-45
2022/04/28 04:05:15;;;;;;;9.93;8.93;;;7.40;89.30;;;;;;5076734;28;20715;-46
2022/04/28 04:07:42;;;;;;;8.80;8.00;;;7.40;89.40;;;;;;5077739;28;20526;-46
2022/04/28 04:10:10;;;;;;;9.33;8.47;;;7.40;89.40;;;;;;5077584;28;21024;-46
2022/04/28 04:12:36;;;;;;;9.40;8.50;;;7.40;89.50;;;;;;5077350;28;20806;-46
2022/04/28 04:15:03;;;;;;;8.50;7.70;;;7.40;89.70;;;;;;5075573;28;20837;-46
2022/04/28 04:17:29;;;;;;;9.47;8.33;;;7.30;89.60;;;;;;5076616;28;20759;-45
2022/04/28 04:19:54;;;;;;;10.03;9.03;;;7.40;89.70;;;;;;5076692;28;20525;-45
2022/04/28 04:22:20;;;;;;;10.47;9.33;;;7.30;89.50;;;;;;5076891;28;20445;-46
2022/04/28 04:24:46;;;;;;;9.67;8.77;;;7.30;89.50;;;;;;5075478;28;20201;-46
2022/04/28 04:27:12;;;;;;;9.97;9.03;;;7.30;89.40;;;;;;5074681;28;20216;-46
2022/04/28 04:29:38;;;;;;;9.20;8.30;;;7.30;89.40;;;;;;5073519;28;20197;-46
2022/04/28 04:32:20;;;;;;;10.23;8.30;;;7.30;89.40;;;;;;5073589;28;20897;-46
2022/04/28 04:34:53;;;;;;;10.17;9.17;;;7.30;89.30;;;;;;5057314;28;20185;-46
2022/04/28 04:37:18;;;;;;;9.53;8.63;;;7.30;89.40;;;;;;5074043;28;20898;-46
2022/04/28 04:39:44;;;;;;;8.87;7.97;;;7.40;89.60;;;;;;5074224;28;20408;-46
2022/04/28 04:42:10;;;;;;;10.37;9.47;;;7.40;89.70;;;;;;5073936;28;20487;-46
2022/04/28 04:44:37;;;;;;;10.63;8.80;;;7.40;89.80;;;;;;5057684;28;20459;-45
2022/04/28 04:47:03;;;;;;;10.13;8.90;;;7.40;89.90;;;;;;5074984;28;20431;-45
2022/04/28 04:49:29;;;;;;;10.53;8.37;;;7.40;89.80;;;;;;5075001;28;20461;-46
2022/04/28 04:51:55;;;;;;;9.47;8.50;;;7.40;89.70;;;;;;5073852;28;20463;-46
2022/04/28 04:54:21;;;;;;;10.20;9.10;;;7.50;89.80;;;;;;5056518;28;20462;-46
2022/04/28 04:56:46;;;;;;;9.83;8.93;;;7.50;89.60;;;;;;5072840;28;20189;-45
2022/04/28 04:59:12;;;;;;;10.43;8.50;;;7.50;89.70;;;;;;5074986;28;20475;-46
2022/04/28 05:01:38;;;;;;;9.10;8.20;;;7.50;89.70;;;;;;5074607;28;20182;-46
2022/04/28 05:04:04;;;;;;;10.03;9.03;;;7.60;89.80;;;;;;5074673;28;20241;-45
2022/04/28 05:06:30;;;;;;;9.80;8.83;;;7.60;89.70;;;;;;5075790;28;20600;-46
2022/04/28 05:08:56;;;;;;;13.97;9.30;;;7.70;89.80;;;;;;5074860;28;20493;-45
2022/04/28 05:11:22;;;;;;;10.13;8.53;;;7.70;89.60;;;;;;5074180;28;20469;-46
2022/04/28 05:13:48;;;;;;;9.50;8.60;;;7.70;89.40;;;;;;5074160;28;20884;-45
2022/04/28 05:16:13;;;;;;;9.83;8.83;;;7.80;89.30;;;;;;5072820;28;20182;-46
2022/04/28 05:18:42;;;;;;;9.87;8.97;;;7.90;89.30;;;;;;5056428;28;20315;-46
2022/04/28 05:21:08;;;;;;;10.00;9.00;;;7.90;89.00;;;;;;5074661;28;20174;-46
2022/04/28 05:23:33;;;;;;;8.70;7.80;;;8.00;89.00;;;;;;5074018;28;20412;-45
2022/04/28 05:25:59;;;;;;;10.83;9.83;;;8.00;88.80;;;;;;5076754;28;20384;-46
2022/04/28 05:28:27;;;;;;;10.07;9.17;;;8.10;88.80;;;;;;5078080;28;20185;-46
2022/04/28 05:30:55;;;;;;;9.80;8.87;;;8.20;88.90;;;;;;5077322;28;20235;-46
2022/04/28 05:33:29;;;;;;;11.23;10.13;;;8.20;89.00;;;;;;5076876;28;20437;-46
2022/04/28 05:35:55;;;;;;;10.63;9.57;;;8.30;89.00;;;;;;5077720;28;20416;-46
2022/04/28 05:38:21;;;;;;;12.73;11.43;;;8.40;89.20;;;;;;5076740;28;20662;-45
2022/04/28 05:40:49;;;;;;;12.47;11.20;;;8.50;89.30;;;;;;5076876;28;20177;-45
2022/04/28 05:46:02;;;;;;;10.17;9.17;;;8.80;89.30;;;;;;5075866;28;20415;-46
2022/04/28 05:48:28;;;;;;;10.93;9.77;;;8.90;88.90;;;;;;5075240;28;20515;-46
2022/04/28 05:50:54;;;;;;;12.20;11.10;;;9.10;88.70;;;;;;5076967;28;20503;-46
2022/04/28 05:53:19;;;;;;;11.30;10.20;;;9.20;88.50;;;;;;5075344;28;20282;-45
2022/04/28 05:55:46;;;;;;;11.43;10.30;;;9.40;88.40;;;;;;5077142;28;20514;-46
2022/04/28 05:58:11;;;;;;;9.93;9.03;;;9.60;88.30;;;;;;5076619;28;20526;-46
2022/04/28 06:00:37;;;;;;;11.43;10.43;;;9.70;88.00;;;;;;5075831;28;20434;-46
2022/04/28 06:03:03;;;;;;;11.27;10.27;;;9.90;88.00;;;;;;5073198;28;20568;-45
2022/04/28 06:05:30;;;;;;;12.67;11.57;;;10.10;86.50;;;;;;5057590;28;20263;-46
2022/04/28 06:07:55;;;;;;;11.70;10.63;;;10.30;86.40;;;;;;5076785;28;20250;-46
2022/04/28 06:10:22;;;;;;;12.33;11.23;;;10.50;86.20;;;;;;5076009;28;20928;-46
2022/04/28 06:12:47;;;;;;;12.63;11.37;;;10.80;86.30;;;;;;5073345;28;20198;-46
2022/04/28 06:15:42;;;;;;;12.13;11.00;;;11.00;86.10;;;;;;5075722;28;20438;-46
2022/04/28 06:18:07;;;;;;;12.23;11.13;;;11.30;86.70;;;;;;5073443;28;20218;-46
2022/04/28 06:20:33;;;;;;;10.87;9.77;;;11.50;86.70;;;;;;5076122;28;20705;-46
2022/04/28 06:22:58;;;;;;;10.80;9.87;;;11.70;86.50;;;;;;5075280;28;20181;-46
2022/04/28 06:25:24;;;;;;;10.77;9.77;;;12.00;86.20;;;;;;5075021;28;20185;-46
2022/04/28 06:27:53;;;;;;;10.43;9.33;;;12.20;85.60;;;;;;5077760;28;20281;-46
2022/04/28 06:30:18;;;;;;;10.43;9.53;;;12.50;85.00;;;;;;5078140;28;20205;-46
2022/04/28 06:32:44;;;;;;;8.47;7.70;;;12.70;84.70;;;;;;5077629;28;20438;-46
2022/04/28 06:35:10;;;;;;;9.10;8.23;;;12.90;83.90;;;;;;5076137;28;20276;-46
2022/04/28 06:37:36;;;;;;;8.30;7.50;;;13.20;83.30;;;;;;5075174;28;20588;-46
2022/04/28 06:40:12;;;;;;;8.00;7.20;;;13.50;81.90;;;;;;5076787;28;20413;-46
2022/04/28 06:42:42;;;;;;;7.90;7.03;;;13.80;80.40;;;;;;5073414;28;20538;-45
2022/04/28 06:45:08;;;;;;;8.60;6.80;;;14.00;78.90;;;;;;5077834;28;20430;-46
2022/04/28 06:47:34;;;;;;;7.43;6.73;;;14.30;77.90;;;;;;5077611;28;20424;-46
2022/04/28 06:50:00;;;;;;;6.90;6.23;;;14.50;77.10;;;;;;5077812;28;20427;-46
2022/04/28 06:52:25;;;;;;;9.10;6.07;;;14.80;76.30;;;;;;5078054;28;20221;-46
2022/04/28 06:54:51;;;;;;;6.70;5.97;;;15.00;75.10;;;;;;5077781;28;20189;-46
2022/04/28 06:57:17;;;;;;;6.63;6.07;;;15.30;73.90;;;;;;5077392;28;20190;-46
2022/04/28 06:59:43;;;;;;;6.07;5.57;;;15.50;72.30;;;;;;5076773;28;20182;-46
2022/04/28 07:02:09;;;;;;;6.90;6.20;;;15.70;70.70;;;;;;5078092;28;20196;-44
2022/04/28 07:04:35;;;;;;;6.17;5.60;;;15.90;69.10;;;;;;5060005;28;20425;-44
2022/04/28 07:07:00;;;;;;;5.63;5.07;;;16.10;67.60;;;;;;5077544;28;20525;-44
2022/04/28 07:09:29;;;;;;;6.10;5.30;;;16.30;66.40;;;;;;5077650;28;20419;-46
2022/04/28 07:11:54;;;;;;;5.33;4.77;;;16.50;65.80;;;;;;5078147;28;20193;-45
2022/04/28 07:14:20;;;;;;;5.50;5.00;;;16.80;64.90;;;;;;5076700;28;20450;-44
2022/04/28 07:16:46;;;;;;;6.43;5.80;;;17.00;62.80;;;;;;5077520;28;20583;-44
2022/04/28 07:19:11;;;;;;;7.03;6.43;;;17.20;60.40;;;;;;5075890;28;20585;-44
2022/04/28 07:21:37;;;;;;;5.97;5.47;;;17.30;58.80;;;;;;5077310;28;20601;-46
2022/04/28 07:24:03;;;;;;;5.50;5.00;;;17.40;58.60;;;;;;5076969;28;20540;-43
2022/04/28 07:26:29;;;;;;;6.50;5.90;;;17.60;58.10;;;;;;5077634;28;20201;-46
2022/04/28 07:28:54;;;;;;;5.77;5.27;;;17.70;57.10;;;;;;5076292;28;20427;-45
2022/04/28 07:31:20;;;;;;;5.70;5.20;;;18.00;56.90;;;;;;5075642;28;20189;-43
2022/04/28 07:33:46;;;;;;;5.80;5.20;;;18.10;56.80;;;;;;5074570;28;20509;-45
2022/04/28 07:36:14;;;;;;;7.40;4.20;;;18.40;56.60;;;;;;5076491;28;20296;-46
2022/04/28 07:38:43;;;;;;;4.87;4.47;;;18.70;56.20;;;;;;5075972;28;20590;-47
2022/04/28 07:41:09;;;;;;;5.27;4.77;;;19.00;55.60;;;;;;5076140;28;20443;-46
2022/04/28 07:43:35;;;;;;;5.30;4.80;;;19.30;54.60;;;;;;5074847;28;20858;-47
2022/04/28 07:46:00;;;;;;;4.50;4.10;;;19.50;53.70;;;;;;5074280;28;20234;-45
2022/04/28 07:48:29;;;;;;;4.90;4.40;;;19.80;53.10;;;;;;5074954;28;20185;-47
2022/04/28 07:51:15;;;;;;;5.10;4.60;;;20.10;52.70;;;;;;5058030;28;20225;-45
2022/04/28 07:53:41;;;;;;;5.40;4.90;;;20.30;51.20;;;;;;5075499;28;20648;-45
2022/04/28 07:56:17;;;;;;;4.23;3.93;;;20.50;50.10;;;;;;5075604;28;20511;-44
2022/04/28 07:58:44;;;;;;;3.37;3.10;;;20.60;49.50;;;;;;5076375;28;20257;-51
2022/04/28 08:01:10;;;;;;;4.63;3.70;;;20.80;50.40;;;;;;5077049;28;20514;-47
2022/04/28 08:03:37;;;;;;;3.40;3.10;;;21.10;52.20;;;;;;5075242;28;20427;-46
2022/04/28 08:06:03;;;;;;;3.90;3.20;;;21.30;51.80;;;;;;5075193;28;20740;-46
2022/04/28 08:08:28;;;;;;;5.70;4.73;;;21.60;51.60;;;;;;5073940;28;20728;-45
2022/04/28 08:10:54;;;;;;;3.57;3.27;;;21.90;51.30;;;;;;5073665;28;21113;-45
2022/04/28 08:13:20;;;;;;;3.60;3.30;;;22.10;50.40;;;;;;5073932;28;20582;-47
2022/04/28 08:15:51;;;;;;;4.03;3.50;;;22.40;50.20;;;;;;5074135;28;20704;-48
2022/04/28 08:18:16;;;;;;;3.57;3.00;;;22.60;49.50;;;;;;5074388;28;20460;-47
2022/04/28 08:20:42;;;;;;;3.73;3.43;;;22.80;49.20;;;;;;5073966;28;20420;-47
2022/04/28 08:23:08;;;;;;;4.67;3.50;;;23.10;48.60;;;;;;5075325;28;20194;-46
2022/04/28 08:25:34;;;;;;;4.00;3.70;;;23.20;47.30;;;;;;5076668;28;20187;-45
2022/04/28 08:28:00;;;;;;;4.90;3.90;;;23.50;47.10;;;;;;5076631;28;20452;-48
2022/04/28 08:30:26;;;;;;;3.97;3.57;;;23.70;45.90;;;;;;5074899;28;20750;-47
2022/04/28 08:32:52;;;;;;;4.20;3.90;;;23.80;45.30;;;;;;5074726;28;20492;-47
2022/04/28 08:35:18;;;;;;;3.90;3.60;;;24.00;45.10;;;;;;5075927;28;20543;-48
2022/04/28 08:37:43;;;;;;;4.10;3.70;;;24.20;44.70;;;;;;5076870;28;20209;-45
2022/04/28 08:40:09;;;;;;;4.00;3.70;;;24.30;44.00;;;;;;5076387;28;20523;-47
2022/04/28 08:42:37;;;;;;;4.00;3.67;;;24.50;43.40;;;;;;5076779;28;20190;-48
2022/04/28 08:45:03;;;;;;;4.10;3.80;;;24.60;42.10;;;;;;5076446;28;20742;-46
2022/04/28 08:47:29;;;;;;;3.97;3.20;;;24.70;41.70;;;;;;5074815;28;20444;-48
2022/04/28 08:49:55;;;;;;;4.20;3.90;;;24.90;41.90;;;;;;5056613;28;20769;-48
2022/04/28 08:52:21;;;;;;;6.80;4.40;;;25.00;40.70;;;;;;5073152;28;20250;-48
2022/04/28 08:54:50;;;;;;;7.97;5.73;;;25.10;40.20;;;;;;5055906;28;20506;-48
2022/04/28 08:57:16;;;;;;;6.67;5.60;;;25.20;39.00;;;;;;5073462;28;20185;-46
2022/04/28 08:59:43;;;;;;;6.37;5.20;;;25.30;37.90;;;;;;5074363;28;20417;-47
2022/04/28 09:02:11;;;;;;;9.37;5.70;;;25.20;37.40;;;;;;5077518;28;20671;-47
2022/04/28 09:04:37;;;;;;;5.90;4.90;;;25.40;38.80;;;;;;5078266;28;20487;-47
2022/04/28 09:07:13;;;;;;;5.50;4.50;;;25.50;38.00;;;;;;5078141;28;20752;-50
2022/04/28 09:09:38;;;;;;;7.37;5.63;;;25.50;37.00;;;;;;5071239;28;20272;-47
2022/04/28 09:12:05;;;;;;;7.13;4.70;;;25.60;37.30;;;;;;5058149;28;20439;-48
2022/04/28 09:14:31;;;;;;;5.80;4.97;;;25.80;37.70;;;;;;5058792;28;20258;-46
2022/04/28 09:16:59;;;;;;;5.47;3.97;;;26.00;37.00;;;;;;5058737;28;20418;-47
2022/04/28 09:19:30;;;;;;;4.57;4.03;;;26.20;36.70;;;;;;5058070;28;20973;-47
2022/04/28 09:22:09;;;;;;;6.50;4.20;;;26.40;36.70;;;;;;5057949;28;20449;-47
2022/04/28 09:24:37;;;;;;;6.07;4.00;;;26.50;37.10;;;;;;5058902;28;20439;-49
2022/04/28 09:27:03;;;;;;;4.77;4.37;;;26.80;36.10;;;;;;5040804;28;20426;-49
2022/04/28 09:29:36;;;;;;;3.70;3.40;;;27.00;34.70;;;;;;5058231;28;20409;-48
2022/04/28 09:32:17;;;;;;;4.40;3.80;;;27.10;34.30;;;;;;5057325;28;20437;-48
2022/04/28 09:34:47;;;;;;;4.67;4.27;;;26.90;34.90;;;;;;5042000;28;21029;-49
2022/04/28 09:37:19;;;;;;;4.23;3.90;;;27.00;34.50;;;;;;5058252;28;20414;-47
2022/04/28 09:42:39;;;;;;;3.80;3.50;;;27.40;34.70;;;;;;5057274;28;20492;-48
2022/04/28 09:45:09;;;;;;;6.43;3.80;;;27.60;34.60;;;;;;5058310;28;20403;-48
2022/04/28 09:47:36;;;;;;;3.43;3.13;;;28.00;34.40;;;;;;5058031;28;20401;-47
2022/04/28 09:50:15;;;;;;;6.10;3.77;;;28.10;34.30;;;;;;5058758;28;20482;-46
2022/04/28 09:52:43;;;;;;;4.23;3.53;;;28.00;31.00;;;;;;5058933;28;20936;-49
2022/04/28 09:55:08;;;;;;;5.90;3.77;;;28.10;31.20;;;;;;5058682;28;20836;-46
2022/04/28 09:57:34;;;;;;;3.97;3.67;;;28.20;32.30;;;;;;5041067;28;20510;-48
2022/04/28 10:00:00;;;;;;;3.70;3.40;;;28.40;32.40;;;;;;5059138;28;20178;-47
2022/04/28 10:02:26;;;;;;;3.50;3.20;;;28.70;32.20;;;;;;5057665;28;20170;-49
2022/04/28 10:04:54;;;;;;;3.40;3.10;;;28.90;31.30;;;;;;5056230;28;20436;-51
2022/04/28 10:07:20;;;;;;;4.00;3.70;;;29.10;30.70;;;;;;5057164;28;20440;-47
2022/04/28 10:09:51;;;;;;;4.60;4.20;;;29.30;29.90;;;;;;5039026;28;20971;-48
2022/04/28 10:12:25;;;;;;;4.70;4.20;;;29.20;28.80;;;;;;5055137;28;20692;-46
2022/04/28 10:14:53;;;;;;;4.63;4.23;;;29.20;28.50;;;;;;5054770;28;20704;-46
2022/04/28 10:17:41;;;;;;;4.23;3.93;;;29.30;28.30;;;;;;5036676;28;20418;-45
2022/04/28 10:20:18;;;;;;;4.40;4.00;;;29.40;28.20;;;;;;5054735;28;20785;-44
2022/04/28 10:22:44;;;;;;;3.80;3.50;;;29.70;28.20;;;;;;5036838;28;20521;-45
2022/04/28 10:33:41;;;;;;;4.07;3.77;;;31.10;28.00;;;;;;5039146;28;20425;-47
2022/04/28 10:36:17;;;;;;;4.80;4.33;;;31.50;27.80;;;;;;5055042;28;20408;-46
2022/04/28 10:39:12;;;;;;;4.40;4.00;;;31.70;27.60;;;;;;5055218;28;20469;-46
2022/04/28 10:41:50;;;;;;;4.00;3.70;;;32.00;27.60;;;;;;5040235;28;20812;-45
2022/04/28 10:44:16;;;;;;;4.50;4.13;;;32.20;27.60;;;;;;5056576;28;20398;-44
2022/04/28 10:46:59;;;;;;;5.20;4.70;;;32.50;27.20;;;;;;5056993;28;20424;-46
2022/04/28 10:49:25;;;;;;;5.27;4.60;;;32.60;26.40;;;;;;5055011;28;20396;-46
2022/04/28 10:51:57;;;;;;;4.87;4.47;;;32.80;26.60;;;;;;5037586;28;20829;-45
2022/04/28 10:54:24;;;;;;;4.63;4.23;;;32.80;25.90;;;;;;5055247;28;20509;-46
2022/04/28 10:56:54;;;;;;;4.80;4.40;;;32.80;25.80;;;;;;5054061;28;20424;-47
2022/04/28 10:59:34;;;;;;;4.80;4.40;;;32.80;25.60;;;;;;5054923;28;20455;-43
2022/04/28 11:02:25;;;;;;;4.60;4.20;;;32.90;26.00;;;;;;5054820;28;20398;-46
2022/04/28 11:05:06;;;;;;;4.10;3.80;;;33.20;26.20;;;;;;5036070;28;20423;-44
2022/04/28 11:07:32;;;;;;;4.60;4.03;;;33.40;25.80;;;;;;5035811;28;20428;-46
2022/04/28 11:10:00;;;;;;;4.37;3.97;;;33.50;25.60;;;;;;5054143;28;20450;-48
2022/04/28 11:12:36;;;;;;;4.50;4.20;;;33.40;25.90;;;;;;5037281;28;20288;-45
2022/04/28 11:15:08;;;;;;;4.97;4.47;;;33.80;26.10;;;;;;5053145;28;20518;-45
2022/04/28 11:17:38;;;;;;;4.37;3.97;;;34.00;25.00;;;;;;5067236;28;20420;-46
2022/04/28 11:20:12;;;;;;;4.60;4.20;;;34.00;24.80;;;;;;5073273;28;20478;-44
2022/04/28 11:22:51;;;;;;;4.47;4.13;;;34.20;25.20;;;;;;5074328;28;20433;-44
2022/04/28 11:25:22;;;;;;;4.00;3.70;;;34.50;25.20;;;;;;5075344;28;20419;-48
2022/04/28 11:27:50;;;;;;;3.90;3.60;;;34.70;25.30;;;;;;5056846;28;20837;-46
2022/04/28 11:30:22;;;;;;;4.17;3.87;;;35.10;25.40;;;;;;5073929;28;20419;-46
2022/04/28 11:32:52;;;;;;;4.00;3.70;;;35.40;25.30;;;;;;5075651;28;20425;-46
2022/04/28 11:35:22;;;;;;;4.30;4.00;;;35.60;25.10;;;;;;5076659;28;20519;-47
2022/04/28 11:38:04;;;;;;;4.17;3.77;;;35.80;24.90;;;;;;5074939;28;20781;-46
2022/04/28 11:40:35;;;;;;;4.10;3.80;;;36.00;25.00;;;;;;5075238;28;20807;-44
2022/04/28 11:43:02;;;;;;;5.10;4.60;;;36.20;25.10;;;;;;5057176;28;20603;-46
2022/04/28 11:45:32;;;;;;;4.30;4.00;;;36.20;24.30;;;;;;5074147;28;20399;-45
2022/04/28 11:48:00;;;;;;;3.53;3.33;;;36.20;24.40;;;;;;5073733;28;20431;-46
2022/04/28 11:50:34;;;;;;;4.03;3.73;;;36.40;24.70;;;;;;5075328;28;20432;-47
2022/04/28 11:53:07;;;;;;;4.63;4.23;;;36.60;24.50;;;;;;5075366;28;20575;-45
2022/04/28 11:55:36;;;;;;;4.73;4.33;;;36.60;23.70;;;;;;5075974;28;20524;-45
2022/04/28 11:58:03;;;;;;;4.67;4.23;;;36.60;23.90;;;;;;5075399;28;20470;-46
2022/04/28 12:00:36;;;;;;;4.17;3.87;;;36.70;24.20;;;;;;5073686;28;20970;-46
2022/04/28 12:03:03;;;;;;;4.13;3.83;;;36.90;24.40;;;;;;5076208;28;20509;-43
2022/04/28 12:05:32;;;;;;;3.77;3.47;;;37.10;24.50;;;;;;5056634;28;20411;-44
2022/04/28 12:07:58;;;;;;;4.40;4.00;;;37.40;24.30;;;;;;5064788;28;20442;-48
2022/04/28 12:19:25;;;;;;;4.07;3.77;;;37.60;23.30;;;;;;4972473;28;20467;-47
2022/04/28 12:21:50;;;;;;;4.27;3.87;;;37.70;23.00;;;;;;5023448;28;20821;-47
2022/04/28 12:24:22;;;;;;;3.57;3.37;;;37.80;23.30;;;;;;5054970;28;20478;-46
2022/04/28 12:26:49;;;;;;;3.80;3.50;;;37.90;23.50;;;;;;5054922;28;20214;-46
2022/04/28 12:29:17;;;;;;;4.00;3.70;;;38.10;23.60;;;;;;5054934;28;20467;-45
2022/04/28 12:31:55;;;;;;;4.00;3.80;;;38.30;23.40;;;;;;5054974;28;20429;-46
2022/04/28 12:34:24;;;;;;;4.67;4.23;;;38.50;23.60;;;;;;5054219;28;20422;-47
2022/04/28 12:36:57;;;;;;;3.67;3.40;;;38.70;23.70;;;;;;5054527;28;20438;-46
2022/04/28 12:39:26;;;;;;;4.20;3.90;;;38.80;23.60;;;;;;5055574;28;20488;-45
2022/04/28 12:41:52;;;;;;;3.77;3.47;;;39.00;23.50;;;;;;5055945;28;20434;-45
2022/04/28 12:44:18;;;;;;;4.53;4.13;;;39.10;23.30;;;;;;5021887;28;20486;-45
2022/04/28 12:46:45;;;;;;;4.17;3.87;;;39.10;23.10;;;;;;5037999;28;20819;-45
2022/04/28 12:49:18;;;;;;;4.10;3.73;;;39.10;23.20;;;;;;5055521;28;20581;-45
2022/04/28 12:51:45;;;;;;;4.20;3.70;;;39.10;22.90;;;;;;5054989;28;20431;-50
2022/04/28 12:54:19;;;;;;;3.93;3.63;;;39.20;23.10;;;;;;5054365;28;20538;-45
2022/04/28 12:57:05;;;;;;;4.63;3.87;;;39.30;22.70;;;;;;5053764;28;20530;-47
2022/04/28 12:59:36;;;;;;;4.50;4.10;;;39.40;22.60;;;;;;5053195;28;20893;-46
2022/04/28 13:02:02;;;;;;;4.03;3.73;;;39.40;22.80;;;;;;5052935;28;20833;-47
2022/04/28 13:04:28;;;;;;;4.00;3.60;;;39.50;23.20;;;;;;5036030;28;20852;-46
2022/04/28 13:06:54;;;;;;;3.60;3.30;;;39.60;23.30;;;;;;5052795;28;20456;-46
2022/04/28 13:09:22;;;;;;;4.60;3.97;;;39.70;23.10;;;;;;5054875;28;20252;-45
2022/04/28 13:11:49;;;;;;;4.40;4.00;;;39.80;22.90;;;;;;5054133;28;20521;-48
2022/04/28 13:14:17;;;;;;;4.97;4.47;;;39.90;22.80;;;;;;5053716;28;20459;-47
2022/04/28 13:16:46;;;;;;;4.20;3.90;;;39.90;22.70;;;;;;5051310;28;20972;-46
2022/04/28 13:19:12;;;;;;;4.93;4.00;;;40.00;22.70;;;;;;5035562;28;20959;-45
2022/04/28 13:21:39;;;;;;;4.70;4.40;;;39.80;21.90;;;;;;5058835;28;20445;-43
2022/04/28 13:24:05;;;;;;;4.67;4.20;;;39.40;21.50;;;;;;5071546;28;20418;-47
2022/04/28 13:26:31;;;;;;;4.10;3.80;;;39.10;21.70;;;;;;5072781;28;20418;-46
2022/04/28 13:28:58;;;;;;;4.43;4.13;;;39.00;22.30;;;;;;5072554;28;20400;-44